createdAt,value
2019-03-05T00:02:18.574Z,68.95
2019-03-05T00:04:48.083Z,68.89
2019-03-05T00:07:17.590Z,68.84
2019-03-05T00:09:47.146Z,68.75
2019-03-05T00:12:16.644Z,68.70
2019-03-05T00:14:46.169Z,68.56
2019-03-05T00:17:15.709Z,68.58
2019-03-05T00:19:45.298Z,68.55
2019-03-05T00:22:14.826Z,68.52
2019-03-05T00:25:02.582Z,68.50
2019-03-05T00:27:34.508Z,68.38
2019-03-05T00:30:31.115Z,68.08
2019-03-05T00:33:29.538Z,67.85
2019-03-05T00:36:18.469Z,67.56
2019-03-05T00:39:22.906Z,67.36
2019-03-05T00:42:50.789Z,67.24
2019-03-05T00:45:33.810Z,67.14
2019-03-05T00:48:39.889Z,67.01
2019-03-05T00:51:49.086Z,67.00
2019-03-05T00:55:04.365Z,66.93
2019-03-05T00:57:49.746Z,66.86
2019-03-05T01:00:32.717Z,66.71
2019-03-05T01:03:29.518Z,66.65
2019-03-05T01:06:21.582Z,66.65
2019-03-05T01:08:51.262Z,66.54
2019-03-05T01:11:21.886Z,66.37
2019-03-05T01:13:51.503Z,66.30
2019-03-05T01:16:23.006Z,66.26
2019-03-05T01:18:52.514Z,66.28
2019-03-05T01:21:22.112Z,66.21
2019-03-05T01:23:51.629Z,66.17
2019-03-05T01:26:21.139Z,66.26
2019-03-05T01:28:50.700Z,66.39
2019-03-05T01:31:32.018Z,66.50
2019-03-05T01:34:03.184Z,66.66
2019-03-05T01:36:34.329Z,66.74
2019-03-05T01:39:22.551Z,66.92
2019-03-05T01:41:52.054Z,67.09
2019-03-05T01:44:21.581Z,67.39
2019-03-05T01:46:51.306Z,67.63
2019-03-05T01:49:20.799Z,67.80
2019-03-05T01:51:50.388Z,67.99
2019-03-05T01:54:19.921Z,68.08
2019-03-05T01:56:49.433Z,68.25
2019-03-05T01:59:18.946Z,68.40
2019-03-05T02:01:48.486Z,68.45
2019-03-05T02:04:17.998Z,68.51
2019-03-05T02:06:47.778Z,68.71
2019-03-05T02:09:18.396Z,68.88
2019-03-05T02:11:47.908Z,69.05
2019-03-05T02:14:17.420Z,69.16
2019-03-05T02:16:46.955Z,69.24
2019-03-05T02:19:43.199Z,69.30
2019-03-05T02:22:20.854Z,69.31
2019-03-05T02:25:13.513Z,69.10
2019-03-05T02:28:02.878Z,68.88
2019-03-05T02:30:48.759Z,68.69
2019-03-05T02:34:16.279Z,68.68
2019-03-05T02:37:07.418Z,68.72
2019-03-05T02:39:56.521Z,68.69
2019-03-05T02:42:45.952Z,68.77
2019-03-05T02:45:32.459Z,68.97
2019-03-05T02:48:18.770Z,69.21
2019-03-05T02:50:58.668Z,69.39
2019-03-05T02:53:55.757Z,69.62
2019-03-05T02:56:45.367Z,69.94
2019-03-05T02:59:13.303Z,70.16
2019-03-05T03:01:50.454Z,70.35
2019-03-05T03:04:24.307Z,70.58
2019-03-05T03:06:53.884Z,70.73
2019-03-05T03:09:31.335Z,70.77
2019-03-05T03:12:00.849Z,70.90
2019-03-05T03:14:30.370Z,71.01
2019-03-05T03:16:59.892Z,71.01
2019-03-05T03:19:29.424Z,70.96
2019-03-05T03:21:58.927Z,70.90
2019-03-05T03:24:28.457Z,70.84
2019-03-05T03:26:57.977Z,70.82
2019-03-05T03:29:27.499Z,70.80
2019-03-05T03:31:57.074Z,70.75
2019-03-05T03:34:26.610Z,70.77
2019-03-05T03:36:56.283Z,70.73
2019-03-05T03:39:25.908Z,70.71
2019-03-05T03:41:55.412Z,70.61
2019-03-05T03:44:25.143Z,70.53
2019-03-05T03:46:54.633Z,70.37
2019-03-05T03:49:24.145Z,70.25
2019-03-05T03:51:53.721Z,70.12
2019-03-05T03:54:23.190Z,70.05
2019-03-05T03:56:52.802Z,69.97
2019-03-05T03:59:22.454Z,69.93
2019-03-05T04:01:51.984Z,69.87
2019-03-05T04:04:21.578Z,69.83
2019-03-05T04:06:51.327Z,69.83
2019-03-05T04:09:20.858Z,69.79
2019-03-05T04:11:50.373Z,69.76
2019-03-05T04:14:19.880Z,69.75
2019-03-05T04:16:49.413Z,69.77
2019-03-05T04:19:20.568Z,69.73
2019-03-05T04:21:50.446Z,69.73
2019-03-05T04:24:20.037Z,69.78
2019-03-05T04:26:49.550Z,69.80
2019-03-05T04:29:19.082Z,69.89
2019-03-05T04:31:48.623Z,70.02
2019-03-05T04:34:18.267Z,70.16
2019-03-05T04:36:47.781Z,70.36
2019-03-05T04:39:17.292Z,70.58
2019-03-05T04:41:46.829Z,70.68
2019-03-05T04:44:17.989Z,70.86
2019-03-05T04:46:49.396Z,71.11
2019-03-05T04:49:26.799Z,71.31
2019-03-05T04:52:07.060Z,71.57
2019-03-05T04:54:36.576Z,71.74
2019-03-05T04:57:06.162Z,71.87
2019-03-05T04:59:35.688Z,72.11
2019-03-05T05:02:05.278Z,72.29
2019-03-05T05:04:34.802Z,72.54
2019-03-05T05:07:04.560Z,72.67
2019-03-05T05:09:34.076Z,72.84
2019-03-05T05:12:03.614Z,72.99
2019-03-05T05:14:33.120Z,73.06
2019-03-05T05:17:02.668Z,73.15
2019-03-05T05:19:32.215Z,73.19
2019-03-05T05:22:01.707Z,73.22
2019-03-05T05:24:31.308Z,73.29
2019-03-05T05:27:00.832Z,73.31
2019-03-05T05:29:30.355Z,73.35
2019-03-05T05:31:59.885Z,73.48
2019-03-05T05:34:29.417Z,73.54
2019-03-05T05:36:58.957Z,73.57
2019-03-05T05:40:20.247Z,73.62
2019-03-05T05:42:49.783Z,73.73
2019-03-05T05:45:23.794Z,73.70
2019-03-05T05:47:53.371Z,73.80
2019-03-05T05:50:22.919Z,73.87
2019-03-05T05:52:52.444Z,73.99
2019-03-05T05:55:22.152Z,74.02
2019-03-05T05:57:51.924Z,74.08
2019-03-05T06:00:21.449Z,74.03
2019-03-05T06:02:50.960Z,74.00
2019-03-05T06:05:20.485Z,73.96
2019-03-05T06:07:50.181Z,73.98
2019-03-05T06:10:19.778Z,73.90
2019-03-05T06:12:49.396Z,73.83
2019-03-05T06:15:20.473Z,73.84
2019-03-05T06:17:49.996Z,73.91
2019-03-05T06:20:19.690Z,73.88
2019-03-05T06:22:49.210Z,73.83
2019-03-05T06:25:18.860Z,73.78
2019-03-05T06:27:48.402Z,73.80
2019-03-05T06:30:26.981Z,73.77
2019-03-05T06:32:56.512Z,73.71
2019-03-05T06:35:26.110Z,73.63
2019-03-05T06:37:55.707Z,73.55
2019-03-05T06:40:28.072Z,73.51
2019-03-05T06:42:57.639Z,73.42
2019-03-05T06:45:27.184Z,73.31
2019-03-05T06:47:56.968Z,73.29
2019-03-05T06:50:28.387Z,73.24
2019-03-05T06:52:57.989Z,73.16
2019-03-05T06:55:27.580Z,73.00
2019-03-05T06:57:57.108Z,72.83
2019-03-05T07:00:34.229Z,72.56
2019-03-05T07:03:05.886Z,71.93
2019-03-05T07:06:30.298Z,70.76
2019-03-05T07:09:04.927Z,69.87
2019-03-05T07:12:01.381Z,69.67
2019-03-05T07:14:44.408Z,69.48
2019-03-05T07:17:30.332Z,68.86
2019-03-05T07:20:35.845Z,68.38
2019-03-05T07:23:21.725Z,67.69
2019-03-05T07:25:51.295Z,66.41
2019-03-05T07:28:20.811Z,65.32
2019-03-05T07:30:50.387Z,64.03
2019-03-05T07:33:19.960Z,63.04
2019-03-05T07:35:49.484Z,61.55
2019-03-05T07:38:19.024Z,59.41
2019-03-05T07:40:48.552Z,56.71
2019-03-05T07:43:19.636Z,54.40
2019-03-05T07:45:49.156Z,52.05
2019-03-05T07:48:18.683Z,50.80
2019-03-05T07:50:48.240Z,49.97
2019-03-05T07:53:17.758Z,48.84
2019-03-05T07:55:47.546Z,48.68
2019-03-05T07:58:17.072Z,49.31
2019-03-05T08:00:46.596Z,50.25
2019-03-05T08:03:16.144Z,50.93
2019-03-05T08:05:47.524Z,50.97
2019-03-05T08:09:12.888Z,50.80
2019-03-05T08:11:42.454Z,50.75
2019-03-05T08:14:26.258Z,51.38
2019-03-05T08:16:55.840Z,52.51
2019-03-05T08:19:25.395Z,53.63
2019-03-05T08:21:55.415Z,54.44
2019-03-05T08:24:24.992Z,54.98
2019-03-05T08:26:54.600Z,55.22
2019-03-05T08:29:24.241Z,55.66
2019-03-05T08:31:53.791Z,55.98
2019-03-05T08:34:23.349Z,56.23
2019-03-05T08:36:52.987Z,56.60
2019-03-05T08:39:22.547Z,56.92
2019-03-05T08:41:52.093Z,57.35
2019-03-05T08:44:21.982Z,57.75
2019-03-05T08:46:51.528Z,57.42
2019-03-05T08:49:21.105Z,56.69
2019-03-05T08:51:51.009Z,54.58
2019-03-05T08:54:20.564Z,52.29
2019-03-05T08:56:50.123Z,50.83
2019-03-05T08:59:19.713Z,50.30
2019-03-05T09:01:49.343Z,50.54
2019-03-05T09:04:18.897Z,51.28
2019-03-05T09:06:49.345Z,51.72
2019-03-05T09:09:19.447Z,51.16
2019-03-05T09:11:49.018Z,50.44
2019-03-05T09:14:18.572Z,49.36
2019-03-05T09:16:48.280Z,48.84
2019-03-05T09:19:17.889Z,49.00
2019-03-05T09:21:49.246Z,49.40
2019-03-05T09:24:18.905Z,49.93
2019-03-05T09:26:51.579Z,50.50
2019-03-05T09:29:19.902Z,51.39
2019-03-05T09:31:49.450Z,52.15
2019-03-05T09:34:19.018Z,52.53
2019-03-05T09:36:51.188Z,52.82
2019-03-05T09:39:20.312Z,52.71
2019-03-05T09:41:49.930Z,52.18
2019-03-05T09:44:19.508Z,51.30
2019-03-05T09:46:49.065Z,50.28
2019-03-05T09:49:18.804Z,49.58
2019-03-05T09:51:48.353Z,49.71
2019-03-05T09:54:17.904Z,50.40
2019-03-05T09:56:47.627Z,51.52
2019-03-05T09:59:17.180Z,52.91
2019-03-05T10:01:48.442Z,53.89
2019-03-05T10:04:18.024Z,54.34
2019-03-05T10:06:47.645Z,54.92
2019-03-05T10:09:17.586Z,55.56
2019-03-05T10:11:47.128Z,56.19
2019-03-05T10:14:16.695Z,56.88
2019-03-05T10:16:46.249Z,57.53
2019-03-05T10:19:15.795Z,57.49
2019-03-05T10:21:46.670Z,56.76
2019-03-05T10:24:16.446Z,55.92
2019-03-05T10:26:46.071Z,54.90
2019-03-05T10:29:15.792Z,53.63
2019-03-05T10:31:45.349Z,52.73
2019-03-05T10:34:14.900Z,52.26
2019-03-05T10:36:44.742Z,51.82
2019-03-05T10:39:30.371Z,50.54
2019-03-05T10:41:55.619Z,49.03
2019-03-05T10:44:25.242Z,47.92
2019-03-05T10:46:56.133Z,47.12
2019-03-05T10:49:26.578Z,47.00
2019-03-05T10:51:58.791Z,47.01
2019-03-05T10:54:28.145Z,47.76
2019-03-05T10:56:57.728Z,47.70
2019-03-05T10:59:27.345Z,47.71
2019-03-05T11:01:57.241Z,47.80
2019-03-05T11:04:27.208Z,47.82
2019-03-05T11:06:56.886Z,47.97
2019-03-05T11:09:26.462Z,47.98
2019-03-05T11:11:56.092Z,48.10
2019-03-05T11:14:25.815Z,48.32
2019-03-05T11:16:55.935Z,48.42
2019-03-05T11:19:25.516Z,49.03
2019-03-05T11:21:55.093Z,49.61
2019-03-05T11:24:24.660Z,50.22
2019-03-05T11:26:54.308Z,50.59
2019-03-05T11:29:23.869Z,50.79
2019-03-05T11:31:53.436Z,50.97
2019-03-05T11:34:23.121Z,51.00
2019-03-05T11:36:52.725Z,50.63
2019-03-05T11:39:22.365Z,50.55
2019-03-05T11:41:51.935Z,50.59
2019-03-05T11:44:21.570Z,50.59
2019-03-05T11:46:51.126Z,50.55
2019-03-05T11:49:20.749Z,50.53
2019-03-05T11:51:50.493Z,50.59
2019-03-05T11:54:21.321Z,50.70
2019-03-05T11:56:51.838Z,50.91
2019-03-05T11:59:21.398Z,51.21
2019-03-05T12:01:51.169Z,51.59
2019-03-05T12:04:20.745Z,52.06
2019-03-05T12:06:50.380Z,52.38
2019-03-05T12:09:20.114Z,52.80
2019-03-05T12:11:49.743Z,53.55
2019-03-05T12:14:19.340Z,53.94
2019-03-05T12:16:48.875Z,54.14
2019-03-05T12:19:18.415Z,54.29
2019-03-05T12:21:48.272Z,54.44
2019-03-05T12:24:19.990Z,54.55
2019-03-05T12:26:49.160Z,54.63
2019-03-05T12:29:18.743Z,54.67
2019-03-05T12:31:48.296Z,54.47
2019-03-05T12:34:17.856Z,54.20
2019-03-05T12:36:47.441Z,54.01
2019-03-05T12:39:20.082Z,53.90
2019-03-05T12:41:49.616Z,53.73
2019-03-05T12:44:19.191Z,53.68
2019-03-05T12:46:48.783Z,53.92
2019-03-05T12:49:18.473Z,54.15
2019-03-05T12:51:48.159Z,54.27
2019-03-05T12:54:17.715Z,54.38
2019-03-05T12:56:48.601Z,54.72
2019-03-05T12:59:18.164Z,55.10
2019-03-05T13:01:47.739Z,55.68
2019-03-05T13:04:17.348Z,56.15
2019-03-05T13:06:46.981Z,56.36
2019-03-05T13:09:19.511Z,57.07
2019-03-05T13:11:49.890Z,58.17
2019-03-05T13:14:20.557Z,59.28
2019-03-05T13:16:50.227Z,60.13
2019-03-05T13:19:19.856Z,60.43
2019-03-05T13:21:50.228Z,60.49
2019-03-05T13:24:19.863Z,60.59
2019-03-05T13:26:49.526Z,60.64
2019-03-05T13:29:20.512Z,60.60
2019-03-05T13:31:50.268Z,60.22
2019-03-05T13:34:19.831Z,59.61
2019-03-05T13:36:50.603Z,59.29
2019-03-05T13:39:22.204Z,58.88
2019-03-05T13:41:53.906Z,58.51
2019-03-05T13:44:33.918Z,57.99
2019-03-05T13:47:05.590Z,57.59
2019-03-05T13:50:11.359Z,57.21
2019-03-05T13:52:48.144Z,56.64
2019-03-05T13:55:31.164Z,56.26
2019-03-05T13:58:40.186Z,56.00
2019-03-05T14:01:10.983Z,55.95
2019-03-05T14:03:53.394Z,56.50
2019-03-05T14:06:56.486Z,57.02
2019-03-05T14:09:24.471Z,57.69
2019-03-05T14:11:54.454Z,58.29
2019-03-05T14:14:26.652Z,58.46
2019-03-05T14:16:58.244Z,58.87
2019-03-05T14:19:29.442Z,59.24
2019-03-05T14:21:59.142Z,59.57
2019-03-05T14:24:28.774Z,59.95
2019-03-05T14:26:58.791Z,60.22
2019-03-05T14:29:29.436Z,60.67
2019-03-05T14:32:00.115Z,60.89
2019-03-05T14:34:31.076Z,60.92
2019-03-05T14:37:00.860Z,61.06
2019-03-05T14:39:33.847Z,61.10
2019-03-05T14:42:05.932Z,61.05
2019-03-05T14:44:39.936Z,60.69
2019-03-05T14:47:07.611Z,60.25
2019-03-05T14:49:37.169Z,59.56
2019-03-05T14:52:07.503Z,58.93
2019-03-05T14:54:37.118Z,58.43
2019-03-05T14:57:06.812Z,58.16
2019-03-05T14:59:36.537Z,57.87
2019-03-05T15:02:06.271Z,57.67
2019-03-05T15:04:35.886Z,57.45
2019-03-05T15:07:05.650Z,57.35
2019-03-05T15:09:35.218Z,57.33
2019-03-05T15:12:04.881Z,57.33
2019-03-05T15:14:34.654Z,57.37
2019-03-05T15:17:04.930Z,57.43
2019-03-05T15:19:34.816Z,57.49
2019-03-05T15:22:04.608Z,57.57
2019-03-05T15:24:34.212Z,57.80
2019-03-05T15:27:03.811Z,58.23
2019-03-05T15:29:33.400Z,58.66
2019-03-05T15:32:03.062Z,59.06
2019-03-05T15:34:32.680Z,59.45
2019-03-05T15:37:02.275Z,59.74
2019-03-05T15:39:31.926Z,60.20
2019-03-05T15:42:01.527Z,60.63
2019-03-05T15:44:31.139Z,61.16
2019-03-05T15:47:00.710Z,61.70
2019-03-05T15:49:30.359Z,62.30
2019-03-05T15:52:00.075Z,63.05
2019-03-05T15:54:29.601Z,63.84
2019-03-05T15:56:59.167Z,64.52
2019-03-05T15:59:28.958Z,65.18
2019-03-05T16:01:58.696Z,65.68
2019-03-05T16:04:28.238Z,66.20
2019-03-05T16:06:57.878Z,66.65
2019-03-05T16:09:27.488Z,67.01
2019-03-05T16:11:57.028Z,67.46
2019-03-05T16:14:29.655Z,68.02
2019-03-05T16:16:57.963Z,68.46
2019-03-05T16:19:27.484Z,68.76
2019-03-05T16:21:57.471Z,68.97
2019-03-05T16:24:27.009Z,69.03
2019-03-05T16:26:56.975Z,69.14
2019-03-05T16:29:27.450Z,69.33
2019-03-05T16:32:07.703Z,71.24
2019-03-05T16:34:48.000Z,72.83
2019-03-05T16:37:24.956Z,74.23
2019-03-05T16:40:05.182Z,79.04
2019-03-05T16:42:53.095Z,78.78
2019-03-05T16:45:39.670Z,82.16
2019-03-05T16:48:20.034Z,81.05
2019-03-05T16:50:51.299Z,81.31
2019-03-05T16:53:28.256Z,80.68
2019-03-05T16:56:15.603Z,80.40
2019-03-05T16:58:44.986Z,80.13
2019-03-05T17:01:16.254Z,79.90
2019-03-05T17:03:49.972Z,79.69
2019-03-05T17:06:24.187Z,79.35
2019-03-05T17:08:58.176Z,78.83
2019-03-05T17:11:38.430Z,78.52
2019-03-05T17:14:08.360Z,78.19
2019-03-05T17:16:37.915Z,78.00
2019-03-05T17:19:07.723Z,77.88
2019-03-05T17:21:37.370Z,78.00
2019-03-05T17:24:07.769Z,78.30
2019-03-05T17:26:37.448Z,78.48
2019-03-05T17:29:07.679Z,78.67
2019-03-05T17:31:37.231Z,78.90
2019-03-05T17:34:06.844Z,79.09
2019-03-05T17:36:36.415Z,79.10
2019-03-05T17:39:09.712Z,79.23
2019-03-05T17:41:39.253Z,79.43
2019-03-05T17:44:08.963Z,79.55
2019-03-05T17:46:40.206Z,79.61
2019-03-05T17:49:09.747Z,79.70
2019-03-05T17:51:39.425Z,79.83
2019-03-05T17:54:09.040Z,79.95
2019-03-05T17:56:38.622Z,80.13
2019-03-05T17:59:08.756Z,80.31
2019-03-05T18:01:38.335Z,80.53
2019-03-05T18:04:08.018Z,80.77
2019-03-05T18:06:37.562Z,81.04
2019-03-05T18:09:09.711Z,81.33
2019-03-05T18:11:39.353Z,81.67
2019-03-05T18:14:09.092Z,81.91
2019-03-05T18:16:38.632Z,82.17
2019-03-05T18:19:08.203Z,82.42
2019-03-05T18:21:38.074Z,82.66
2019-03-05T18:24:07.691Z,82.75
2019-03-05T18:26:37.264Z,82.93
2019-03-05T18:29:06.807Z,82.97
2019-03-05T18:31:36.388Z,82.93
2019-03-05T18:34:06.456Z,82.95
2019-03-05T18:36:36.294Z,83.06
2019-03-05T18:39:06.274Z,83.11
2019-03-05T18:41:35.807Z,82.96
2019-03-05T18:44:06.513Z,82.82
2019-03-05T18:46:36.140Z,82.71
2019-03-05T18:49:05.786Z,82.64
2019-03-05T18:51:35.337Z,82.54
2019-03-05T18:54:05.157Z,82.58
2019-03-05T18:56:34.711Z,82.66
2019-03-05T18:59:04.321Z,82.60
2019-03-05T19:01:34.000Z,82.54
2019-03-05T19:04:03.611Z,82.50
2019-03-05T19:06:33.186Z,82.63
2019-03-05T19:09:02.974Z,82.66
2019-03-05T19:11:32.635Z,82.73
2019-03-05T19:14:02.182Z,82.93
2019-03-05T19:16:31.724Z,83.16
2019-03-05T19:19:01.371Z,83.34
2019-03-05T19:21:31.014Z,83.48
2019-03-05T19:24:00.574Z,83.63
2019-03-05T19:26:30.123Z,83.86
2019-03-05T19:28:59.795Z,84.21
2019-03-05T19:31:29.406Z,84.60
2019-03-05T19:33:58.965Z,84.91
2019-03-05T19:36:28.903Z,85.16
2019-03-05T19:38:58.467Z,85.39
2019-03-05T19:41:28.042Z,85.44
2019-03-05T19:43:57.864Z,85.61
2019-03-05T19:46:27.564Z,85.79
2019-03-05T19:48:57.125Z,85.85
2019-03-05T19:51:26.669Z,86.01
2019-03-05T19:53:57.802Z,86.19
2019-03-05T19:56:27.575Z,86.24
2019-03-05T19:58:57.172Z,86.34
2019-03-05T20:01:28.526Z,86.52
2019-03-05T20:03:58.110Z,86.63
2019-03-05T20:06:27.761Z,86.74
2019-03-05T20:08:57.361Z,86.89
2019-03-05T20:11:27.011Z,87.00
2019-03-05T20:13:56.628Z,87.10
2019-03-05T20:16:28.019Z,87.26
2019-03-05T20:18:57.574Z,87.54
2019-03-05T20:21:27.207Z,87.75
2019-03-05T20:23:56.818Z,87.98
2019-03-05T20:26:26.438Z,88.07
2019-03-05T20:28:56.002Z,88.21
2019-03-05T20:31:25.583Z,88.45
2019-03-05T20:33:55.218Z,88.54
2019-03-05T20:36:24.801Z,88.63
2019-03-05T20:38:54.369Z,88.68
2019-03-05T20:41:23.918Z,88.79
2019-03-05T20:43:53.487Z,88.95
2019-03-05T20:46:23.516Z,89.05
2019-03-05T20:48:53.206Z,89.20
2019-03-05T20:51:22.956Z,89.32
2019-03-05T20:53:52.514Z,89.42
2019-03-05T20:56:22.244Z,89.51
2019-03-05T20:58:51.853Z,89.46
2019-03-05T21:01:21.564Z,89.48
2019-03-05T21:03:51.235Z,89.48
2019-03-05T21:06:21.098Z,89.59
2019-03-05T21:08:50.872Z,89.72
2019-03-05T21:11:20.436Z,89.85
2019-03-05T21:13:50.180Z,89.96
2019-03-05T21:16:19.759Z,89.97
2019-03-05T21:18:49.636Z,90.12
2019-03-05T21:21:19.260Z,90.21
2019-03-05T21:23:48.811Z,90.28
2019-03-05T21:26:18.394Z,90.43
2019-03-05T21:28:47.974Z,90.52
2019-03-05T21:31:17.695Z,90.54
2019-03-05T21:33:51.900Z,90.63
2019-03-05T21:36:21.276Z,90.64
2019-03-05T21:38:50.833Z,90.63
2019-03-05T21:41:20.723Z,90.67
2019-03-05T21:43:50.295Z,90.69
2019-03-05T21:46:20.010Z,90.74
2019-03-05T21:48:49.616Z,90.76
2019-03-05T21:51:19.162Z,90.90
2019-03-05T21:53:48.710Z,91.02
2019-03-05T21:56:18.300Z,91.09
2019-03-05T21:58:47.920Z,91.10
2019-03-05T22:01:17.553Z,90.90
2019-03-05T22:03:47.657Z,90.66
2019-03-05T22:06:17.216Z,90.54
2019-03-05T22:08:46.862Z,90.60
2019-03-05T22:11:16.422Z,90.70
2019-03-05T22:13:46.143Z,90.77
2019-03-05T22:16:15.980Z,90.83
2019-03-05T22:18:45.555Z,90.99
2019-03-05T22:21:15.103Z,90.95
2019-03-05T22:23:44.846Z,91.01
2019-03-05T22:26:14.419Z,90.96
2019-03-05T22:28:45.115Z,90.96
2019-03-05T22:31:14.691Z,91.01
2019-03-05T22:33:44.261Z,91.06
2019-03-05T22:36:13.893Z,91.18
2019-03-05T22:38:43.446Z,91.21
2019-03-05T22:41:13.034Z,91.25
2019-03-05T22:43:43.076Z,91.29
2019-03-05T22:46:12.631Z,91.38
2019-03-05T22:48:42.219Z,91.50
2019-03-05T22:51:11.938Z,91.60
2019-03-05T22:53:41.511Z,91.57
2019-03-05T22:56:11.146Z,91.60
2019-03-05T22:58:40.733Z,91.63
2019-03-05T23:01:13.807Z,91.69
2019-03-05T23:03:44.499Z,91.67
2019-03-05T23:06:14.147Z,91.69
2019-03-05T23:08:43.769Z,91.68
2019-03-05T23:11:13.521Z,91.68
2019-03-05T23:13:43.419Z,91.61
2019-03-05T23:16:14.023Z,91.62
2019-03-05T23:18:43.574Z,91.63
2019-03-05T23:21:13.545Z,91.68
2019-03-05T23:23:43.115Z,91.64
2019-03-05T23:26:13.547Z,91.57
2019-03-05T23:28:43.965Z,91.53
2019-03-05T23:31:13.967Z,91.52
2019-03-05T23:33:43.529Z,91.49
2019-03-05T23:36:13.322Z,91.46
2019-03-05T23:38:42.926Z,91.47
2019-03-05T23:41:12.668Z,91.46
2019-03-05T23:43:42.294Z,91.47
2019-03-05T23:46:11.925Z,91.47
2019-03-05T23:48:41.547Z,91.46
2019-03-05T23:51:11.148Z,91.49
2019-03-05T23:53:40.697Z,91.61
2019-03-05T23:56:10.263Z,91.66
2019-03-05T23:58:39.823Z,91.62
